Hauptseite
METAR-TAF:

METAR-TAF

Flughäfen :

Flughafen Le Bourget

Paris, Frankreich

Breite: 48-58N, Länge: 002-27E, Höhe: 66 m

METAR: fehlend

Zeit: 15:31 (13:31 UTC)

Prognose

Neuester Wetterbericht von vor 2 Stunden und 31 Minuten, um 11:00 UTC
Gültige Prognose vom 17 um 12 UTC bis 18 um 12 UTC
Wind 8 kt aus West/Nordwest
Sichtweite 10 km oder mehr
Leicht bewölkt in der Höhe von 3300 ft
Übergehend zu
vom 17 um 21 UTC bis 17 um 24 UTC
Wind 5 kt aus Nord/Nordost

TAF: LFPB 171100Z 1712/1812 29008KT 9999 FEW033 BECMG 1721/1724 02005KT

Wetterbeobachtungen und Prognosen von mehr als 4000 Flughäfen (METAR und TAF Bericht).

Die verfügbaren Stationen werden durch gelbe und rote Markierungen auf der Karte dargestellt.

Führen Sie die Maus auf sie, um den Namen der Station zu sehen.

Darauf klicken, um die Beobachtung von Wetterbeobachtungen und Prognosen zu sehen.

Um die Karte zu ändern : klicken Sie auf den grünen Tasten mit einem schwarzen Kreuz Zum Vergrößern, auf den grünen Button mit einem Gedankenstrich zu verkleinern, oder auf die grünen Pfeile für benachbarte Karten.


METAR-TAF: